WMKP/PEN METAR and TAF weather

Enter ICAO airport designator
Station Type Date Time Source
WMKP METAR 2020/01/21 09:30 UTC NOAA

WMKP 210930Z 23008KT 170V270 9999 FEW020 30/25 Q1010 NOSIG


Station Type Date Time Source
WMKP Decoded METAR 2020/01/21 09:30 UTC NOAA

Penang / Bayan Lepas, Malaysia (WMKP) 05-18N 100-16E 4M
Jan 21, 2020 - 04:30 AM EST / 2020.01.21 0930 UTC
Wind: from the SW (230 degrees) at 9 MPH (8 KT) (direction variable):0
Visibility: greater than 7 mile(s):0
Sky conditions: mostly clear
Temperature: 86 F (30 C)
Heat index: 96.8 F (36.0 C):1
Dew Point: 77 F (25 C)
Relative Humidity: 74%
Pressure (altimeter): 29.83 in. Hg (1010 hPa)
ob: WMKP 210930Z 23008KT 170V270 9999 FEW020 30/25 Q1010 NOSIG
cycle: 9

Station Type Date Time Source
WMKP TAF 2020/01/21 06:09 UTC NOAA

TAF WMKP 210500Z 2106/2206 22008KT 9999 FEW020
BECMG 2112/2114 04007KT 9000 FEW025

Example: see airport list